createdAt,value
2023-04-15T00:02:18.382Z,98061.09
2023-04-15T00:05:20.961Z,98066.03
2023-04-15T00:08:23.108Z,98059.88
2023-04-15T00:11:25.320Z,98066.03
2023-04-15T00:14:28.170Z,98071.84
2023-04-15T00:17:30.409Z,98063.25
2023-04-15T00:20:32.469Z,98064.03
2023-04-15T00:23:36.461Z,98065.28
2023-04-15T00:26:38.586Z,98068.38
2023-04-15T00:29:40.749Z,98071.91
2023-04-15T00:32:42.872Z,98068.19
2023-04-15T00:35:45.049Z,98072.56
2023-04-15T00:38:47.267Z,98075.69
2023-04-15T00:41:49.421Z,98068.91
2023-04-15T00:44:51.754Z,98073.84
2023-04-15T00:47:54.010Z,98074.47
2023-04-15T00:50:56.228Z,98077.56
2023-04-15T00:53:58.325Z,98077.56
2023-04-15T00:57:00.779Z,98071.81
2023-04-15T01:00:04.702Z,98064.38
2023-04-15T01:03:07.009Z,98061.09
2023-04-15T01:06:09.259Z,98059.88
2023-04-15T01:09:11.925Z,98052.06
2023-04-15T01:12:15.536Z,98048.19
2023-04-15T01:15:17.646Z,98054.16
2023-04-15T01:18:20.001Z,98053.13
2023-04-15T01:21:22.315Z,98047.78
2023-04-15T01:24:26.172Z,98060.53
2023-04-15T01:27:28.593Z,98057.63
2023-04-15T01:30:33.964Z,98061.50
2023-04-15T01:33:37.124Z,98058.03
2023-04-15T01:36:39.606Z,98060.28
2023-04-15T01:39:41.727Z,98057.63
2023-04-15T01:42:43.909Z,98065.44
2023-04-15T01:45:46.358Z,98066.28
2023-04-15T01:48:48.832Z,98055.78
2023-04-15T01:51:50.920Z,98056.41
2023-04-15T01:54:53.393Z,98059.28
2023-04-15T01:57:55.530Z,98061.97
2023-04-15T02:00:58.578Z,98059.25
2023-04-15T02:04:01.417Z,98066.69
2023-04-15T02:07:03.704Z,98071.59
2023-04-15T02:10:06.403Z,98072.44
2023-04-15T02:13:11.331Z,98064.63
2023-04-15T02:16:17.984Z,98069.97
2023-04-15T02:19:20.204Z,98067.09
2023-04-15T02:22:22.854Z,98069.16
2023-04-15T02:25:25.151Z,98066.72
2023-04-15T02:28:28.016Z,98068.56
2023-04-15T02:31:30.509Z,98066.72
2023-04-15T02:34:34.663Z,98062.19
2023-04-15T02:37:40.824Z,98056.00
2023-04-15T02:40:44.954Z,98054.38
2023-04-15T02:43:48.281Z,98062.59
2023-04-15T02:46:52.981Z,98067.13
2023-04-15T02:49:58.978Z,98069.59
2023-04-15T02:53:02.887Z,98064.47
2023-04-15T02:56:07.065Z,98071.28
2023-04-15T02:59:09.626Z,98074.13
2023-04-15T03:02:12.111Z,98071.06
2023-04-15T03:05:14.946Z,98072.91
2023-04-15T03:08:23.530Z,98071.69
2023-04-15T03:11:27.456Z,98065.91
2023-04-15T03:14:30.042Z,98061.19
2023-04-15T03:17:32.598Z,98058.72
2023-04-15T03:20:36.652Z,98060.78
2023-04-15T03:23:38.954Z,98050.28
2023-04-15T03:26:41.630Z,98064.50
2023-04-15T03:29:47.730Z,98056.06
2023-04-15T03:32:52.425Z,98059.34
2023-04-15T03:35:55.439Z,98061.41
2023-04-15T03:38:58.418Z,98081.19
2023-04-15T03:42:01.858Z,98065.53
2023-04-15T03:45:04.395Z,98065.53
2023-04-15T03:48:16.461Z,98065.31
2023-04-15T03:51:19.786Z,98067.59
2023-04-15T03:54:22.231Z,98065.72
2023-04-15T03:57:24.472Z,98078.72
2023-04-15T04:00:26.935Z,98069.44
2023-04-15T04:03:29.379Z,98069.44
2023-04-15T04:06:31.754Z,98063.47
2023-04-15T04:09:34.707Z,98059.31
2023-04-15T04:12:36.855Z,98062.66
2023-04-15T04:15:39.308Z,98064.28
2023-04-15T04:18:41.782Z,98056.88
2023-04-15T04:21:44.048Z,98052.31
2023-04-15T04:24:46.680Z,98067.53
2023-04-15T04:27:48.869Z,98062.19
2023-04-15T04:30:51.544Z,98068.56
2023-04-15T04:33:54.004Z,98066.28
2023-04-15T04:36:57.006Z,98070.44
2023-04-15T04:39:59.491Z,98069.19
2023-04-15T04:43:02.138Z,98070.44
2023-04-15T04:46:04.583Z,98076.81
2023-04-15T04:49:07.134Z,98077.00
2023-04-15T04:52:10.485Z,98083.16
2023-04-15T04:55:12.873Z,98075.34
2023-04-15T04:58:15.269Z,98071.19
2023-04-15T05:01:17.585Z,98073.22
2023-04-15T05:04:20.011Z,98071.22
2023-04-15T05:07:22.446Z,98066.69
2023-04-15T05:10:24.916Z,98071.19
2023-04-15T05:13:27.221Z,98066.41
2023-04-15T05:16:29.736Z,98066.81
2023-04-15T05:19:32.288Z,98073.66
2023-04-15T05:22:34.552Z,98071.41
2023-04-15T05:25:36.984Z,98079.25
2023-04-15T05:28:39.153Z,98084.19
2023-04-15T05:31:41.915Z,98080.25
2023-04-15T05:34:44.634Z,98084.56
2023-04-15T05:37:47.337Z,98086.44
2023-04-15T05:40:49.639Z,98081.88
2023-04-15T05:43:52.304Z,98074.66
2023-04-15T05:46:54.592Z,98079.41
2023-04-15T05:49:57.235Z,98082.72
2023-04-15T05:52:59.353Z,98094.25
2023-04-15T05:56:01.748Z,98080.22
2023-04-15T05:59:04.019Z,98083.47
2023-04-15T06:02:06.396Z,98085.88
2023-04-15T06:05:10.046Z,98094.53
2023-04-15T06:08:12.949Z,98082.34
2023-04-15T06:11:15.341Z,98091.72
2023-04-15T06:14:17.548Z,98086.13
2023-04-15T06:17:20.053Z,98101.78
2023-04-15T06:20:22.488Z,98109.44
2023-04-15T06:23:26.331Z,98115.94
2023-04-15T06:26:29.195Z,98109.88
2023-04-15T06:29:31.253Z,98116.09
2023-04-15T06:32:33.546Z,98117.47
2023-04-15T06:35:35.652Z,98121.91
2023-04-15T06:38:37.726Z,98117.53
2023-04-15T06:41:39.815Z,98120.53
2023-04-15T06:44:42.171Z,98125.06
2023-04-15T06:47:44.236Z,98137.91
2023-04-15T06:50:46.394Z,98130.19
2023-04-15T06:53:48.547Z,98127.72
2023-04-15T06:56:51.599Z,98138.59
2023-04-15T06:59:54.718Z,98137.81
2023-04-15T07:02:57.119Z,98138.81
2023-04-15T07:05:59.732Z,98143.16
2023-04-15T07:09:03.267Z,98147.34
2023-04-15T07:12:05.612Z,98152.41
2023-04-15T07:15:07.912Z,98146.50
2023-04-15T07:18:09.990Z,98150.97
2023-04-15T07:21:12.649Z,98146.97
2023-04-15T07:24:18.145Z,98148.88
2023-04-15T07:27:20.274Z,98149.34
2023-04-15T07:30:22.364Z,98156.66
2023-04-15T07:33:24.420Z,98158.44
2023-04-15T07:36:26.438Z,98157.78
2023-04-15T07:39:29.268Z,98154.13
2023-04-15T07:42:31.302Z,98162.25
2023-04-15T07:45:33.765Z,98157.88
2023-04-15T07:48:37.049Z,98173.53
2023-04-15T07:51:39.633Z,98165.88
2023-04-15T07:54:41.775Z,98166.84
2023-04-15T07:57:43.826Z,98165.56
2023-04-15T08:00:46.055Z,98164.84
2023-04-15T08:03:48.672Z,98178.00
2023-04-15T08:06:50.964Z,98172.66
2023-04-15T08:09:53.075Z,98176.97
2023-04-15T08:12:55.159Z,98176.25
2023-04-15T08:16:16.195Z,98185.06
2023-04-15T08:19:18.397Z,98185.19
2023-04-15T08:22:21.351Z,98181.34
2023-04-15T08:25:24.440Z,98180.00
2023-04-15T08:28:26.526Z,98179.22
2023-04-15T08:31:29.893Z,98185.28
2023-04-15T08:34:32.130Z,98184.88
2023-04-15T08:37:34.223Z,98182.91
2023-04-15T08:40:41.437Z,98185.44
2023-04-15T08:43:49.259Z,98191.94
2023-04-15T08:46:52.529Z,98193.44
2023-04-15T08:49:55.786Z,98188.72
2023-04-15T08:52:59.337Z,98180.97
2023-04-15T08:56:03.432Z,98182.31
2023-04-15T08:59:06.382Z,98193.19
2023-04-15T09:02:09.388Z,98185.34
2023-04-15T09:05:11.483Z,98188.69
2023-04-15T09:08:13.785Z,98178.06
2023-04-15T09:11:19.921Z,98183.22
2023-04-15T09:14:22.873Z,98184.06
2023-04-15T09:17:26.709Z,98183.19
2023-04-15T09:20:28.863Z,98183.72
2023-04-15T09:23:31.200Z,98193.63
2023-04-15T09:26:37.297Z,98199.31
2023-04-15T09:29:41.729Z,98191.19
2023-04-15T09:32:58.150Z,98195.19
2023-04-15T09:36:01.585Z,98192.00
2023-04-15T09:39:03.978Z,98188.81
2023-04-15T09:42:07.125Z,98191.88
2023-04-15T09:45:12.201Z,98187.78
2023-04-15T09:48:18.543Z,98192.66
2023-04-15T09:51:33.332Z,98190.63
2023-04-15T09:54:36.644Z,98186.53
2023-04-15T09:57:40.164Z,98184.22
2023-04-15T10:00:42.244Z,98181.19
2023-04-15T10:03:45.218Z,98174.47
2023-04-15T10:06:47.514Z,98176.03
2023-04-15T10:09:49.932Z,98172.78
2023-04-15T10:12:52.630Z,98174.16
2023-04-15T10:15:58.657Z,98173.44
2023-04-15T10:19:01.996Z,98171.91
2023-04-15T10:22:04.502Z,98178.66
2023-04-15T10:25:07.603Z,98179.81
2023-04-15T10:28:10.455Z,98189.44
2023-04-15T10:31:14.218Z,98183.53
2023-04-15T10:34:17.164Z,98181.81
2023-04-15T10:37:23.641Z,98178.53
2023-04-15T10:40:27.870Z,98191.00
2023-04-15T10:43:30.052Z,98191.50
2023-04-15T10:46:43.125Z,98195.75
2023-04-15T10:49:46.610Z,98189.22
2023-04-15T10:52:51.837Z,98195.94
2023-04-15T10:55:54.277Z,98184.94
2023-04-15T10:58:58.699Z,98179.81
2023-04-15T11:02:02.186Z,98198.75
2023-04-15T11:05:04.518Z,98194.19
2023-04-15T11:08:06.969Z,98201.00
2023-04-15T11:11:09.378Z,98195.16
2023-04-15T11:14:15.634Z,98205.72
2023-04-15T11:17:27.797Z,98209.22
2023-04-15T11:20:30.258Z,98219.97
2023-04-15T11:23:37.793Z,98229.28
2023-04-15T11:26:40.249Z,98220.59
2023-04-15T11:29:42.457Z,98215.97
2023-04-15T11:32:44.668Z,98233.59
2023-04-15T11:35:47.225Z,98211.84
2023-04-15T11:38:49.344Z,98212.09
2023-04-15T11:41:51.402Z,98214.00
2023-04-15T11:45:06.627Z,98203.53
2023-04-15T11:48:09.491Z,98218.00
2023-04-15T11:51:12.150Z,98214.53
2023-04-15T11:54:18.804Z,98205.66
2023-04-15T11:57:20.950Z,98218.75
2023-04-15T12:00:23.147Z,98220.63
2023-04-15T12:03:25.473Z,98222.19
2023-04-15T12:06:33.632Z,98229.84
2023-04-15T12:09:39.877Z,98240.94
2023-04-15T12:12:42.283Z,98229.03
2023-04-15T12:15:44.799Z,98242.13
2023-04-15T12:18:47.668Z,98230.06
2023-04-15T12:21:49.800Z,98245.69
2023-04-15T12:24:57.153Z,98235.88
2023-04-15T12:27:59.617Z,98245.63
2023-04-15T12:31:06.909Z,98243.09
2023-04-15T12:34:09.288Z,98242.59
2023-04-15T12:37:13.188Z,98246.22
2023-04-15T12:40:15.433Z,98246.16
2023-04-15T12:43:17.513Z,98244.50
2023-04-15T12:46:20.373Z,98243.84
2023-04-15T12:49:23.076Z,98246.63
2023-04-15T12:52:25.143Z,98259.28
2023-04-15T12:55:27.757Z,98251.69
2023-04-15T12:58:29.858Z,98253.81
2023-04-15T13:01:32.095Z,98250.28
2023-04-15T13:04:34.374Z,98256.19
2023-04-15T13:07:36.507Z,98270.19
2023-04-15T13:10:38.602Z,98261.25
2023-04-15T13:13:40.691Z,98282.22
2023-04-15T13:16:42.802Z,98278.31
2023-04-15T13:19:44.907Z,98291.31
2023-04-15T13:22:47.018Z,98285.75
2023-04-15T13:25:49.134Z,98281.13
2023-04-15T13:28:51.215Z,98282.28
2023-04-15T13:31:53.462Z,98282.81
2023-04-15T13:34:56.259Z,98290.78
2023-04-15T13:37:58.370Z,98290.09
2023-04-15T13:41:00.654Z,98278.44
2023-04-15T13:44:03.102Z,98286.41
2023-04-15T13:47:05.442Z,98284.53
2023-04-15T13:50:07.779Z,98290.66
2023-04-15T13:53:09.876Z,98293.31
2023-04-15T13:56:12.020Z,98287.81
2023-04-15T13:59:14.055Z,98284.63
2023-04-15T14:02:16.331Z,98294.34
2023-04-15T14:05:18.543Z,98296.41
2023-04-15T14:08:20.708Z,98294.53
2023-04-15T14:11:22.799Z,98302.88
2023-04-15T14:14:24.987Z,98304.28
2023-04-15T14:17:27.113Z,98303.88
2023-04-15T14:20:29.214Z,98307.06
2023-04-15T14:23:31.246Z,98301.84
2023-04-15T14:26:33.407Z,98311.66
2023-04-15T14:29:35.518Z,98313.03
2023-04-15T14:32:37.664Z,98315.78
2023-04-15T14:35:39.778Z,98313.91
2023-04-15T14:38:41.867Z,98317.41
2023-04-15T14:41:43.939Z,98323.44
2023-04-15T14:44:46.381Z,98327.78
2023-04-15T14:47:48.690Z,98325.44
2023-04-15T14:50:50.950Z,98330.97
2023-04-15T14:53:53.013Z,98335.78
2023-04-15T14:56:55.929Z,98336.75
2023-04-15T14:59:59.317Z,98335.66
2023-04-15T15:03:02.310Z,98336.97
2023-04-15T15:06:04.474Z,98342.13
2023-04-15T15:09:06.770Z,98339.31
2023-04-15T15:12:09.165Z,98342.00
2023-04-15T15:15:28.245Z,98346.34
2023-04-15T15:18:31.428Z,98344.47
2023-04-15T15:21:33.662Z,98341.78
2023-04-15T15:24:35.869Z,98352.81
2023-04-15T15:27:38.443Z,98357.28
2023-04-15T15:30:40.707Z,98356.09
2023-04-15T15:33:42.813Z,98364.69
2023-04-15T15:36:44.845Z,98365.25
2023-04-15T15:39:46.951Z,98362.78
2023-04-15T15:42:50.896Z,98365.94
2023-04-15T15:45:55.538Z,98364.44
2023-04-15T15:48:57.914Z,98365.47
2023-04-15T15:51:59.974Z,98370.53
2023-04-15T15:55:02.184Z,98372.41
2023-04-15T15:58:04.258Z,98381.47
2023-04-15T16:01:06.369Z,98382.53
2023-04-15T16:04:08.855Z,98389.09
2023-04-15T16:07:11.794Z,98390.25
2023-04-15T16:10:14.222Z,98397.06
2023-04-15T16:13:16.353Z,98396.84
2023-04-15T16:16:18.420Z,98405.72
2023-04-15T16:19:20.997Z,98408.59
2023-04-15T16:22:23.526Z,98409.28
2023-04-15T16:25:25.746Z,98398.56
2023-04-15T16:28:27.847Z,98403.25
2023-04-15T16:31:30.510Z,98407.69
2023-04-15T16:34:32.574Z,98421.16
2023-04-15T16:37:36.099Z,98411.28
2023-04-15T16:40:38.301Z,98423.50
2023-04-15T16:43:40.534Z,98428.25
2023-04-15T16:46:42.589Z,98440.69
2023-04-15T16:49:44.675Z,98438.81
2023-04-15T16:52:46.775Z,98437.75
2023-04-15T16:55:48.843Z,98440.44
2023-04-15T16:58:50.983Z,98448.75
2023-04-15T17:01:54.003Z,98448.41
2023-04-15T17:04:56.155Z,98448.09
2023-04-15T17:07:58.376Z,98460.59
2023-04-15T17:11:00.496Z,98456.13
2023-04-15T17:14:02.982Z,98462.19
2023-04-15T17:17:06.121Z,98465.41
2023-04-15T17:20:08.382Z,98467.28
2023-04-15T17:23:10.544Z,98475.22
2023-04-15T17:26:12.610Z,98469.22
2023-04-15T17:29:14.717Z,98471.84
2023-04-15T17:32:16.850Z,98473.84
2023-04-15T17:35:18.947Z,98488.22
2023-04-15T17:38:21.093Z,98481.94
2023-04-15T17:41:23.326Z,98490.13
2023-04-15T17:44:25.492Z,98488.47
2023-04-15T17:47:27.809Z,98494.75
2023-04-15T17:50:29.980Z,98503.34
2023-04-15T17:53:32.068Z,98497.88
2023-04-15T17:56:34.525Z,98504.25
2023-04-15T17:59:36.644Z,98512.00
2023-04-15T18:02:39.029Z,98512.88
2023-04-15T18:05:42.616Z,98517.28
2023-04-15T18:08:44.992Z,98521.84
2023-04-15T18:11:48.453Z,98526.63
2023-04-15T18:14:50.584Z,98534.53
2023-04-15T18:17:52.923Z,98528.09
2023-04-15T18:20:55.072Z,98532.72
2023-04-15T18:23:57.147Z,98532.56
2023-04-15T18:26:59.253Z,98533.22
2023-04-15T18:30:01.378Z,98543.22
2023-04-15T18:33:03.692Z,98548.34
2023-04-15T18:36:05.987Z,98548.00
2023-04-15T18:39:08.501Z,98553.19
2023-04-15T18:42:10.653Z,98561.91
2023-04-15T18:45:12.761Z,98563.66
2023-04-15T18:48:15.979Z,98571.50
2023-04-15T18:51:18.142Z,98570.47
2023-04-15T18:54:20.245Z,98577.69
2023-04-15T18:57:26.247Z,98582.59
2023-04-15T19:00:36.430Z,98584.66
2023-04-15T19:03:38.591Z,98592.72
2023-04-15T19:06:40.835Z,98594.38
2023-04-15T19:09:43.090Z,98603.94
2023-04-15T19:12:45.189Z,98607.09
2023-04-15T19:15:47.296Z,98620.91
2023-04-15T19:18:49.359Z,98612.66
2023-04-15T19:21:52.694Z,98619.28
2023-04-15T19:24:54.801Z,98611.84
2023-04-15T19:27:58.907Z,98614.53
2023-04-15T19:31:02.128Z,98622.19
2023-04-15T19:34:04.326Z,98616.63
2023-04-15T19:37:06.460Z,98626.34
2023-04-15T19:40:09.651Z,98631.56
2023-04-15T19:43:11.748Z,98623.50
2023-04-15T19:46:13.937Z,98639.63
2023-04-15T19:49:16.727Z,98642.75
2023-04-15T19:52:18.799Z,98640.91
2023-04-15T19:55:20.955Z,98644.41
2023-04-15T19:58:23.029Z,98649.13
2023-04-15T20:01:25.321Z,98649.69
2023-04-15T20:04:27.741Z,98653.91
2023-04-15T20:07:29.938Z,98658.03
2023-04-15T20:10:32.010Z,98660.50
2023-04-15T20:13:34.161Z,98673.34
2023-04-15T20:16:38.347Z,98679.13
2023-04-15T20:19:40.419Z,98672.53
2023-04-15T20:22:42.507Z,98672.28
2023-04-15T20:25:44.652Z,98672.91
2023-04-15T20:28:46.701Z,98675.41
2023-04-15T20:31:48.850Z,98683.88
2023-04-15T20:34:51.193Z,98690.66
2023-04-15T20:37:53.411Z,98694.31
2023-04-15T20:40:55.786Z,98694.94
2023-04-15T20:43:57.983Z,98694.97
2023-04-15T20:47:00.075Z,98697.47
2023-04-15T20:50:02.370Z,98703.06
2023-04-15T20:53:05.046Z,98695.19
2023-04-15T20:56:07.316Z,98698.91
2023-04-15T20:59:09.395Z,98703.09
2023-04-15T21:02:11.681Z,98688.38
2023-04-15T21:05:13.877Z,98711.94
2023-04-15T21:08:16.068Z,98714.84
2023-04-15T21:11:33.197Z,98720.22
2023-04-15T21:14:40.570Z,98717.13
2023-04-15T21:17:42.722Z,98715.72
2023-04-15T21:20:44.822Z,98720.03
2023-04-15T21:23:46.959Z,98722.88
2023-04-15T21:26:49.327Z,98733.88
2023-04-15T21:29:51.509Z,98730.38
2023-04-15T21:32:53.584Z,98730.81
2023-04-15T21:35:55.847Z,98728.53
2023-04-15T21:38:57.996Z,98736.41
2023-04-15T21:42:00.231Z,98737.00
2023-04-15T21:45:02.559Z,98749.81
2023-04-15T21:48:08.256Z,98746.03
2023-04-15T21:51:10.771Z,98748.50
2023-04-15T21:54:12.924Z,98751.16
2023-04-15T21:57:15.340Z,98755.53
2023-04-15T22:00:17.551Z,98755.09
2023-04-15T22:03:19.793Z,98756.31
2023-04-15T22:06:22.069Z,98756.31
2023-04-15T22:09:24.111Z,98757.94
2023-04-15T22:12:26.341Z,98755.81
2023-04-15T22:15:28.536Z,98753.88
2023-04-15T22:18:30.611Z,98751.94
2023-04-15T22:21:32.645Z,98762.34
2023-04-15T22:24:40.421Z,98762.94
2023-04-15T22:27:42.756Z,98762.91
2023-04-15T22:30:44.824Z,98759.59
2023-04-15T22:33:46.866Z,98768.25
2023-04-15T22:36:49.370Z,98765.44
2023-04-15T22:39:51.992Z,98763.81
2023-04-15T22:42:54.052Z,98757.44
2023-04-15T22:45:56.738Z,98774.53
2023-04-15T22:48:59.380Z,98776.06
2023-04-15T22:52:01.563Z,98771.22
2023-04-15T22:55:04.116Z,98772.31
2023-04-15T22:58:06.288Z,98777.22
2023-04-15T23:01:08.384Z,98781.47
2023-04-15T23:04:24.850Z,98779.63
2023-04-15T23:07:29.017Z,98786.28
2023-04-15T23:10:31.151Z,98785.47
2023-04-15T23:13:36.185Z,98783.22
2023-04-15T23:16:38.250Z,98779.78
2023-04-15T23:19:40.631Z,98782.72
2023-04-15T23:22:43.271Z,98778.56
2023-04-15T23:25:45.386Z,98776.63
2023-04-15T23:28:47.439Z,98780.41
2023-04-15T23:31:49.565Z,98775.91
2023-04-15T23:34:52.291Z,98781.38
2023-04-15T23:37:54.457Z,98787.47
2023-04-15T23:40:56.571Z,98783.59
2023-04-15T23:43:58.728Z,98783.84
2023-04-15T23:47:00.895Z,98793.16
2023-04-15T23:50:03.622Z,98789.22
2023-04-15T23:53:05.701Z,98795.34
2023-04-15T23:56:07.882Z,98780.03
2023-04-15T23:59:10.164Z,98789.78
